Mexico V — XCKR — position and weather

sailwx.info

Track history (hours):
 
Tides and Currents Weather Stations Pressure Air Temp Water Temp Dewpoint Dewpoint Depression Visibility Wind Speed Wind Dir Waves Ship Positions

Mexico V

Last reported at 2016-May-02 17:24 UTC. Time now 2016-May-02 21:21 UTC.
Position N 20°34' W 087°00'.

Length 40 m; draft 1.5 m.

Type: Ship. MMSI: 345110005.

Date/timePositionNaut miles runAvg speedWind from/ knotsBaromVisibWave heightAir tempDewpointWater temp
2016-May-02 17:24N 20°34' W 087°00'3 3.0
2016-May-02 16:33N 20°32' W 086°59'1 1.1
2016-May-02 15:18N 20°33' W 086°60'1 1.9
2016-May-02 14:34N 20°32' W 086°59'1 1.1
2016-May-02 13:16N 20°33' W 086°60'4 5.2
2016-May-02 12:33N 20°31' W 086°57'2 0.2
2016-May-02 03:33N 20°32' W 086°59'2 1.6
2016-May-02 02:22N 20°34' W 087°00'4 5.0
2016-May-02 01:33N 20°31' W 086°57'0 0.1
2016-May-02 00:33N 20°31' W 086°57'0 0.0
2016-May-01 23:33N 20°31' W 086°57'0 0.3
2016-May-01 22:33N 20°31' W 086°57'4 2.9
2016-May-01 21:20N 20°33' W 086°60'4 4.9
2016-May-01 20:33N 20°31' W 086°57'2 2.1
2016-May-01 19:33N 20°32' W 086°59'3 2.3
2016-May-01 18:26N 20°34' W 087°01'3 3.2
2016-May-01 17:34N 20°32' W 086°59'3 2.2
2016-May-01 16:20N 20°34' W 087°00'5 6.0
2016-May-01 15:33N 20°31' W 086°57'0 0.0
2016-May-01 14:33N 20°31' W 086°57'1 1.3
2016-May-01 13:33N 20°32' W 086°58'3 2.4
2016-May-01 12:19N 20°34' W 087°00'4 5.7
2016-May-01 11:33N 20°31' W 086°57'0 0.0
2016-May-01 01:33N 20°31' W 086°57'0 0.0
2016-Apr-30 23:33N 20°31' W 086°57'0 0.0
2016-Apr-30 22:33N 20°31' W 086°57'0 0.0
2016-Apr-30 21:33N 20°31' W 086°57'2 2.0
2016-Apr-30 20:34N 20°32' W 086°58'2 1.6
2016-Apr-30 19:22N 20°34' W 086°60'4 4.8
2016-Apr-30 18:33N 20°31' W 086°57'0 0.0
2016-Apr-30 17:33N 20°31' W 086°57'2 2.2
2016-Apr-30 16:34N 20°32' W 086°59'1 1.1
2016-Apr-30 15:18N 20°33' W 086°60'2 3.4
2016-Apr-30 14:34N 20°32' W 086°58'3 2.0
2016-Apr-30 13:17N 20°33' W 086°60'1 0.2
2016-Apr-30 08:33N 20°34' W 087°00'5 4.7
2016-Apr-30 07:33N 20°30' W 086°57'0 0.0
2016-Apr-30 06:33N 20°30' W 086°57'0 0.3
2016-Apr-30 05:33N 20°31' W 086°57'0 0.0
2016-Apr-30 04:33N 20°31' W 086°57'0 0.0
2016-Apr-30 03:33N 20°31' W 086°57'2 1.8
2016-Apr-30 02:33N 20°32' W 086°58'2 1.7
2016-Apr-30 01:18N 20°34' W 086°60'1 1.1
2016-Apr-30 00:34N 20°33' W 086°59'2 1.8
2016-Apr-29 23:24N 20°35' W 087°01'2 2.2
2016-Apr-29 22:33N 20°33' W 086°60'3 3.2
2016-Apr-29 21:34N 20°31' W 086°57'4 2.5
2016-Apr-29 20:03N 20°33' W 086°60'4 7.7
2016-Apr-29 19:33N 20°31' W 086°57'0 0.0
2016-Apr-29 18:33N 20°31' W 086°57'0 0.0
2016-Apr-29 17:33N 20°31' W 086°57'0 0.0
2016-Apr-29 15:34N 20°31' W 086°57'2 0.8
2016-Apr-29 12:34N 20°29' W 086°59'0 0.0
2016-Apr-29 11:33N 20°29' W 086°59'2 0.3
2016-Apr-29 02:07N 20°31' W 086°57'3 5.3
2016-Apr-29 01:34N 20°33' W 086°59'3 2.3
2016-Apr-29 00:24N 20°35' W 087°01'3 3.9
2016-Apr-28 23:34N 20°33' W 086°59'1 0.9
2016-Apr-28 22:18N 20°33' W 086°60'3 4.5
2016-Apr-28 21:33N 20°31' W 086°57'2 2.5
2016-Apr-28 20:33N 20°33' W 086°59'1 1.2
2016-Apr-28 19:18N 20°34' W 086°60'4 5.2
2016-Apr-28 18:33N 20°31' W 086°57'0 0.0
2016-Apr-28 17:33N 20°31' W 086°57'2 2.1
2016-Apr-28 16:33N 20°32' W 086°59'2 1.6
2016-Apr-28 15:16N 20°34' W 087°00'3 4.8
2016-Apr-28 14:33N 20°31' W 086°57'3 2.7
2016-Apr-28 13:22N 20°34' W 086°60'3 4.1
2016-Apr-28 12:34N 20°31' W 086°57'3 2.7
2016-Apr-28 11:17N 20°34' W 087°00'4 5.5
2016-Apr-28 10:33N 20°31' W 086°57'1 0.1
2016-Apr-28 02:34N 20°31' W 086°58'3 2.7
2016-Apr-28 01:17N 20°34' W 087°00'4 5.8
2016-Apr-28 00:33N 20°31' W 086°57'0 0.0
2016-Apr-27 23:33N 20°31' W 086°57'2 1.5
2016-Apr-27 22:33N 20°32' W 086°58'3 2.3
2016-Apr-27 21:20N 20°34' W 087°00'4 5.5
2016-Apr-27 20:33N 20°31' W 086°57'2 1.5
2016-Apr-27 19:33N 20°32' W 086°58'3 2.2
2016-Apr-27 18:21N 20°34' W 087°00'2 2.3
2016-Apr-27 17:33N 20°33' W 086°59'1 0.8
2016-Apr-27 16:17N 20°33' W 086°59'3 4.7
2016-Apr-27 15:33N 20°31' W 086°57'0 0.0
2016-Apr-27 14:33N 20°31' W 086°57'0 0.5
2016-Apr-27 13:34N 20°31' W 086°57'4 2.9
2016-Apr-27 12:18N 20°34' W 086°60'4 5.5
2016-Apr-27 11:33N 20°31' W 086°57'0 0.0
2016-Apr-27 01:33N 20°31' W 086°57'0 0.0
2016-Apr-26 23:33N 20°31' W 086°57'0 0.1
2016-Apr-26 22:33N 20°31' W 086°57'4 0.8
2016-Apr-26 17:23N 20°34' W 086°60'4 4.7
2016-Apr-26 16:33N 20°31' W 086°57'0 0.0
2016-Apr-26 14:34N 20°31' W 086°57'0 0.1
2016-Apr-26 13:33N 20°31' W 086°57'0 0.2
2016-Apr-26 12:33N 20°31' W 086°57'0 0.2
2016-Apr-26 11:33N 20°31' W 086°57'2 0.2
2016-Apr-26 03:33N 20°32' W 086°58'3 2.7
2016-Apr-26 02:20N 20°34' W 087°00'5 6.2
2016-Apr-26 01:33N 20°31' W 086°57'0 0.1
2016-Apr-26 00:33N 20°31' W 086°57'0 0.0
2016-Apr-25 23:33N 20°31' W 086°57'2 1.8
2016-Apr-25 22:33N 20°32' W 086°58'3 2.1
2016-Apr-25 21:21N 20°34' W 087°00'4 5.5
2016-Apr-25 20:33N 20°31' W 086°57'2 1.9
2016-Apr-25 19:34N 20°32' W 086°58'2 1.3
2016-Apr-25 18:18N 20°33' W 086°60'1 1.8
2016-Apr-25 17:33N 20°32' W 086°59'2 1.6
2016-Apr-25 16:19N 20°34' W 086°60'4 5.5
2016-Apr-25 15:33N 20°31' W 086°57'0 0.0
2016-Apr-25 14:33N 20°31' W 086°57'1 1.0
2016-Apr-25 13:33N 20°31' W 086°58'4 3.1
2016-Apr-25 12:21N 20°34' W 087°00'5 5.9
2016-Apr-25 11:33N 20°31' W 086°57'0 0.0
2016-Apr-25 02:10N 20°31' W 086°57'0 0.1
2016-Apr-25 01:34N 20°31' W 086°57'0 0.0
2016-Apr-24 23:33N 20°31' W 086°57'0 0.0
2016-Apr-24 22:33N 20°31' W 086°57'0 0.0
2016-Apr-24 21:33N 20°31' W 086°57'2 1.7
2016-Apr-24 20:34N 20°32' W 086°58'3 2.0
2016-Apr-24 19:19N 20°34' W 086°60'1 1.8
2016-Apr-24 18:33N 20°33' W 086°59'1 0.6
2016-Apr-24 17:19N 20°32' W 086°59'3 3.7
2016-Apr-24 16:33N 20°31' W 086°57'0 0.0
2016-Apr-24 14:33N 20°31' W 086°57'0 0.0
2016-Apr-24 06:16N 20°30' W 086°57'0 0.0
2016-Apr-24 05:33N 20°30' W 086°57'0 0.0
2016-Apr-24 04:34N 20°30' W 086°57'0 0.0
2016-Apr-24 03:33N 20°30' W 086°57'0 0.3
2016-Apr-24 02:33N 20°31' W 086°57'0 0.3
2016-Apr-24 01:34N 20°30' W 086°57'0 0.0
2016-Apr-23 01:21N 20°30' W 086°57'0 0.2
2016-Apr-22 23:33N 20°31' W 086°57'0 0.1
2016-Apr-22 22:34N 20°31' W 086°57'0 0.0
2016-Apr-22 20:33N 20°31' W 086°57'0 0.0
2016-Apr-22 19:33N 20°31' W 086°57'0 0.0
2016-Apr-22 18:33N 20°31' W 086°57'0 0.0
2016-Apr-22 17:33N 20°31' W 086°57'  
Track history (hours):
 
Tides and Currents Weather Stations Pressure Air Temp Water Temp Dewpoint Dewpoint Depression Visibility Wind Speed Wind Dir Waves Ship Positions

Mexico V

Last reported at 2016-May-02 17:24 UTC. Time now 2016-May-02 21:21 UTC.
Position N 20°34' W 087°00'.

Length 40 m; draft 1.5 m.

Type: Ship. MMSI: 345110005.

Date/timePositionNaut miles runAvg speedWind from/ knotsBaromVisibWave heightAir tempDewpointWater temp
2016-May-02 17:24N 20°34' W 087°00'3 3.0
2016-May-02 16:33N 20°32' W 086°59'1 1.1
2016-May-02 15:18N 20°33' W 086°60'1 1.9
2016-May-02 14:34N 20°32' W 086°59'1 1.1
2016-May-02 13:16N 20°33' W 086°60'4 5.2
2016-May-02 12:33N 20°31' W 086°57'2 0.2
2016-May-02 03:33N 20°32' W 086°59'2 1.6
2016-May-02 02:22N 20°34' W 087°00'4 5.0
2016-May-02 01:33N 20°31' W 086°57'0 0.1
2016-May-02 00:33N 20°31' W 086°57'0 0.0
2016-May-01 23:33N 20°31' W 086°57'0 0.3
2016-May-01 22:33N 20°31' W 086°57'4 2.9
2016-May-01 21:20N 20°33' W 086°60'4 4.9
2016-May-01 20:33N 20°31' W 086°57'2 2.1
2016-May-01 19:33N 20°32' W 086°59'3 2.3
2016-May-01 18:26N 20°34' W 087°01'3 3.2
2016-May-01 17:34N 20°32' W 086°59'3 2.2
2016-May-01 16:20N 20°34' W 087°00'5 6.0
2016-May-01 15:33N 20°31' W 086°57'0 0.0
2016-May-01 14:33N 20°31' W 086°57'1 1.3
2016-May-01 13:33N 20°32' W 086°58'3 2.4
2016-May-01 12:19N 20°34' W 087°00'4 5.7
2016-May-01 11:33N 20°31' W 086°57'0 0.0
2016-May-01 01:33N 20°31' W 086°57'0 0.0
2016-Apr-30 23:33N 20°31' W 086°57'0 0.0
2016-Apr-30 22:33N 20°31' W 086°57'0 0.0
2016-Apr-30 21:33N 20°31' W 086°57'2 2.0
2016-Apr-30 20:34N 20°32' W 086°58'2 1.6
2016-Apr-30 19:22N 20°34' W 086°60'4 4.8
2016-Apr-30 18:33N 20°31' W 086°57'0 0.0
2016-Apr-30 17:33N 20°31' W 086°57'2 2.2
2016-Apr-30 16:34N 20°32' W 086°59'1 1.1
2016-Apr-30 15:18N 20°33' W 086°60'2 3.4
2016-Apr-30 14:34N 20°32' W 086°58'3 2.0
2016-Apr-30 13:17N 20°33' W 086°60'1 0.2
2016-Apr-30 08:33N 20°34' W 087°00'5 4.7
2016-Apr-30 07:33N 20°30' W 086°57'0 0.0
2016-Apr-30 06:33N 20°30' W 086°57'0 0.3
2016-Apr-30 05:33N 20°31' W 086°57'0 0.0
2016-Apr-30 04:33N 20°31' W 086°57'0 0.0
2016-Apr-30 03:33N 20°31' W 086°57'2 1.8
2016-Apr-30 02:33N 20°32' W 086°58'2 1.7
2016-Apr-30 01:18N 20°34' W 086°60'1 1.1
2016-Apr-30 00:34N 20°33' W 086°59'2 1.8
2016-Apr-29 23:24N 20°35' W 087°01'2 2.2
2016-Apr-29 22:33N 20°33' W 086°60'3 3.2
2016-Apr-29 21:34N 20°31' W 086°57'4 2.5
2016-Apr-29 20:03N 20°33' W 086°60'4 7.7
2016-Apr-29 19:33N 20°31' W 086°57'0 0.0
2016-Apr-29 18:33N 20°31' W 086°57'0 0.0
2016-Apr-29 17:33N 20°31' W 086°57'0 0.0
2016-Apr-29 15:34N 20°31' W 086°57'2 0.8
2016-Apr-29 12:34N 20°29' W 086°59'0 0.0
2016-Apr-29 11:33N 20°29' W 086°59'2 0.3
2016-Apr-29 02:07N 20°31' W 086°57'3 5.3
2016-Apr-29 01:34N 20°33' W 086°59'3 2.3
2016-Apr-29 00:24N 20°35' W 087°01'3 3.9
2016-Apr-28 23:34N 20°33' W 086°59'1 0.9
2016-Apr-28 22:18N 20°33' W 086°60'3 4.5
2016-Apr-28 21:33N 20°31' W 086°57'2 2.5
2016-Apr-28 20:33N 20°33' W 086°59'1 1.2
2016-Apr-28 19:18N 20°34' W 086°60'4 5.2
2016-Apr-28 18:33N 20°31' W 086°57'0 0.0
2016-Apr-28 17:33N 20°31' W 086°57'2 2.1
2016-Apr-28 16:33N 20°32' W 086°59'2 1.6
2016-Apr-28 15:16N 20°34' W 087°00'3 4.8
2016-Apr-28 14:33N 20°31' W 086°57'3 2.7
2016-Apr-28 13:22N 20°34' W 086°60'3 4.1
2016-Apr-28 12:34N 20°31' W 086°57'3 2.7
2016-Apr-28 11:17N 20°34' W 087°00'4 5.5
2016-Apr-28 10:33N 20°31' W 086°57'1 0.1
2016-Apr-28 02:34N 20°31' W 086°58'3 2.7
2016-Apr-28 01:17N 20°34' W 087°00'4 5.8
2016-Apr-28 00:33N 20°31' W 086°57'0 0.0
2016-Apr-27 23:33N 20°31' W 086°57'2 1.5
2016-Apr-27 22:33N 20°32' W 086°58'3 2.3
2016-Apr-27 21:20N 20°34' W 087°00'4 5.5
2016-Apr-27 20:33N 20°31' W 086°57'2 1.5
2016-Apr-27 19:33N 20°32' W 086°58'3 2.2
2016-Apr-27 18:21N 20°34' W 087°00'2 2.3
2016-Apr-27 17:33N 20°33' W 086°59'1 0.8
2016-Apr-27 16:17N 20°33' W 086°59'3 4.7
2016-Apr-27 15:33N 20°31' W 086°57'0 0.0
2016-Apr-27 14:33N 20°31' W 086°57'0 0.5
2016-Apr-27 13:34N 20°31' W 086°57'4 2.9
2016-Apr-27 12:18N 20°34' W 086°60'4 5.5
2016-Apr-27 11:33N 20°31' W 086°57'0 0.0
2016-Apr-27 01:33N 20°31' W 086°57'0 0.0
2016-Apr-26 23:33N 20°31' W 086°57'0 0.1
2016-Apr-26 22:33N 20°31' W 086°57'4 0.8
2016-Apr-26 17:23N 20°34' W 086°60'4 4.7
2016-Apr-26 16:33N 20°31' W 086°57'0 0.0
2016-Apr-26 14:34N 20°31' W 086°57'0 0.1
2016-Apr-26 13:33N 20°31' W 086°57'0 0.2
2016-Apr-26 12:33N 20°31' W 086°57'0 0.2
2016-Apr-26 11:33N 20°31' W 086°57'2 0.2
2016-Apr-26 03:33N 20°32' W 086°58'3 2.7
2016-Apr-26 02:20N 20°34' W 087°00'5 6.2
2016-Apr-26 01:33N 20°31' W 086°57'0 0.1
2016-Apr-26 00:33N 20°31' W 086°57'0 0.0
2016-Apr-25 23:33N 20°31' W 086°57'2 1.8
2016-Apr-25 22:33N 20°32' W 086°58'3 2.1
2016-Apr-25 21:21N 20°34' W 087°00'4 5.5
2016-Apr-25 20:33N 20°31' W 086°57'2 1.9
2016-Apr-25 19:34N 20°32' W 086°58'2 1.3
2016-Apr-25 18:18N 20°33' W 086°60'1 1.8
2016-Apr-25 17:33N 20°32' W 086°59'2 1.6
2016-Apr-25 16:19N 20°34' W 086°60'4 5.5
2016-Apr-25 15:33N 20°31' W 086°57'0 0.0
2016-Apr-25 14:33N 20°31' W 086°57'1 1.0
2016-Apr-25 13:33N 20°31' W 086°58'4 3.1
2016-Apr-25 12:21N 20°34' W 087°00'5 5.9
2016-Apr-25 11:33N 20°31' W 086°57'0 0.0
2016-Apr-25 02:10N 20°31' W 086°57'0 0.1
2016-Apr-25 01:34N 20°31' W 086°57'0 0.0
2016-Apr-24 23:33N 20°31' W 086°57'0 0.0
2016-Apr-24 22:33N 20°31' W 086°57'0 0.0
2016-Apr-24 21:33N 20°31' W 086°57'2 1.7
2016-Apr-24 20:34N 20°32' W 086°58'3 2.0
2016-Apr-24 19:19N 20°34' W 086°60'1 1.8
2016-Apr-24 18:33N 20°33' W 086°59'1 0.6
2016-Apr-24 17:19N 20°32' W 086°59'3 3.7
2016-Apr-24 16:33N 20°31' W 086°57'0 0.0
2016-Apr-24 14:33N 20°31' W 086°57'0 0.0
2016-Apr-24 06:16N 20°30' W 086°57'0 0.0
2016-Apr-24 05:33N 20°30' W 086°57'0 0.0
2016-Apr-24 04:34N 20°30' W 086°57'0 0.0
2016-Apr-24 03:33N 20°30' W 086°57'0 0.3
2016-Apr-24 02:33N 20°31' W 086°57'0 0.3
2016-Apr-24 01:34N 20°30' W 086°57'0 0.0
2016-Apr-23 01:21N 20°30' W 086°57'0 0.2
2016-Apr-22 23:33N 20°31' W 086°57'0 0.1
2016-Apr-22 22:34N 20°31' W 086°57'0 0.0
2016-Apr-22 20:33N 20°31' W 086°57'0 0.0
2016-Apr-22 19:33N 20°31' W 086°57'0 0.0
2016-Apr-22 18:33N 20°31' W 086°57'0 0.0
2016-Apr-22 17:33N 20°31' W 086°57'  

Dump ship's entire track history